Aeroporto :
LOGIN :

Iscrizione | Disclaimer

   EN    FR    IT 

 










Sommario :    VFR   VFR Marginale   IFR   IFR Intensivo   IFR Molto Intensivo
Visibilità : 
Base nubi : 
>= 8 km
>= 3000ft
5 / 8 km
1000 / 3000 ft
1500m / 5 km
500 / 1000 ft
800 / 1500m
200 / 500 ft
< 800m
< 200 ft
Simboli :   Temporali  Nebbia  Neve Forte  Precipitazioni Forti  Vento > 20 kt
SIGMETs :   Varie  Temporali  Ghiacco  Turbolenza  Onda orograficha  Ceneri Vulcaniche






- Altitudine del aeroporto : 517 ft
- Codice IATA : GML


UKKM - Antonov

ULTIMO METAR :
  • 140700Z 33006MPS CAVOK 17/10 Q1013 R33/CLRD70 NOSIG

METARs OBSOLETI :
  • 140630Z 32006MPS CAVOK 16/09 Q1013 R33/CLRD70 NOSIG
  • 140600Z 33006MPS CAVOK 15/09 Q1013 R33/CLRD70 NOSIG
  • 140530Z 33006MPS CAVOK 15/09 Q1013
  • 140500Z 31005MPS CAVOK 13/09 Q1013

TAF TAF UKKM
Valido dal 14 a 06 ore il 15 a 06 ore UTC


140504Z 1406/1506 32006G11MPS 9999 BKN025
TEMPO 1408/1418 35009G14MPS 3000 -SHRA SCT007 SCT020CB
PROB40
TEMPO 1408/1416 35011G16MPS
TEMPO 1420/1506 2100 BR BKN007



MetMap, La meteo Aeronautica in un colpo d'occhio ! - Copyright ORBIFLY Dicembre 2007 - Disclaimer

ORBIFLY MET'MAP TEAM :

Programmazione e sviluppo : Alexandra Zaïnal
Concezione : Baudouin d'Aumeries
Aiuto per la programmazione : Marc-Olivier Méhu
Supporto tecnico e logistico : Manuel Goepfert
Aiuto per la traduzione : Arnaldo La Scala

Contatto : metmap@orbifly.com




FONTI E CREDITI :

   NOAA